createdAt,value
2022-11-14T00:00:54.590Z,12.93
2022-11-14T00:03:21.214Z,13.32
2022-11-14T00:05:47.914Z,13.52
2022-11-14T00:08:23.094Z,14.35
2022-11-14T00:10:51.202Z,13.38
2022-11-14T00:13:19.508Z,13.43
2022-11-14T00:15:50.360Z,12.50
2022-11-14T00:18:17.865Z,12.38
2022-11-14T00:20:48.718Z,12.30
2022-11-14T00:23:15.614Z,13.00
2022-11-14T00:25:44.519Z,13.65
2022-11-14T00:28:11.355Z,13.05
2022-11-14T00:30:38.005Z,12.77
2022-11-14T00:33:04.635Z,11.80
2022-11-14T00:35:31.250Z,12.60
2022-11-14T00:37:57.922Z,12.50
2022-11-14T00:40:24.531Z,13.25
2022-11-14T00:42:51.187Z,11.45
2022-11-14T00:45:17.896Z,12.93
2022-11-14T00:47:44.483Z,12.35
2022-11-14T00:50:11.305Z,12.55
2022-11-14T00:52:37.967Z,14.20
2022-11-14T00:55:05.433Z,12.63
2022-11-14T00:57:32.158Z,12.15
2022-11-14T00:59:58.770Z,11.13
2022-11-14T01:02:25.415Z,12.07
2022-11-14T01:04:52.033Z,10.27
2022-11-14T01:07:18.774Z,11.27
2022-11-14T01:09:45.357Z,10.25
2022-11-14T01:12:12.037Z,10.60
2022-11-14T01:14:40.638Z,10.55
2022-11-14T01:17:07.680Z,11.35
2022-11-14T01:19:34.445Z,10.05
2022-11-14T01:22:05.850Z,10.38
2022-11-14T01:24:33.828Z,10.45
2022-11-14T01:27:00.667Z,11.20
2022-11-14T01:29:27.383Z,10.15
2022-11-14T01:31:54.046Z,10.50
2022-11-14T01:34:20.687Z,9.68
2022-11-14T01:36:47.269Z,10.20
2022-11-14T01:39:13.878Z,10.30
2022-11-14T01:41:40.465Z,9.75
2022-11-14T01:44:37.559Z,10.35
2022-11-14T01:47:05.040Z,9.63
2022-11-14T01:49:44.090Z,10.07
2022-11-14T01:52:14.378Z,9.30
2022-11-14T01:54:48.825Z,10.27
2022-11-14T01:57:20.237Z,8.95
2022-11-14T01:59:52.829Z,8.05
2022-11-14T02:02:22.871Z,9.35
2022-11-14T02:04:55.656Z,8.57
2022-11-14T02:07:24.371Z,9.90
2022-11-14T02:09:51.754Z,9.32
2022-11-14T02:12:19.845Z,8.55
2022-11-14T02:14:49.753Z,9.52
2022-11-14T02:17:33.188Z,9.55
2022-11-14T02:20:10.385Z,7.55
2022-11-14T02:22:38.691Z,11.02
2022-11-14T02:25:06.617Z,9.80
2022-11-14T02:27:33.849Z,10.40
2022-11-14T02:30:22.462Z,11.50
2022-11-14T02:35:35.753Z,9.98
2022-11-14T02:38:02.335Z,10.77
2022-11-14T02:40:28.889Z,11.90
2022-11-14T02:42:55.465Z,11.75
2022-11-14T02:45:22.329Z,12.10
2022-11-14T02:47:48.916Z,11.43
2022-11-14T02:50:16.056Z,12.13
2022-11-14T02:52:43.053Z,11.27
2022-11-14T02:55:10.595Z,11.10
2022-11-14T02:57:37.800Z,11.90
2022-11-14T03:00:09.946Z,10.27
2022-11-14T03:02:40.542Z,11.00
2022-11-14T03:05:07.750Z,10.38
2022-11-14T03:07:34.793Z,9.75
2022-11-14T03:10:02.219Z,10.80
2022-11-14T03:12:29.263Z,11.38
2022-11-14T03:14:56.279Z,10.57
2022-11-14T03:17:24.563Z,10.18
2022-11-14T03:19:51.766Z,9.63
2022-11-14T03:22:18.723Z,10.38
2022-11-14T03:24:45.722Z,9.55
2022-11-14T03:27:12.710Z,10.75
2022-11-14T03:29:39.768Z,10.15
2022-11-14T03:32:06.796Z,10.15
2022-11-14T03:34:33.799Z,10.05
2022-11-14T03:37:00.819Z,10.30
2022-11-14T03:39:28.223Z,9.43
2022-11-14T03:41:55.238Z,10.13
2022-11-14T03:44:22.609Z,9.38
2022-11-14T03:46:49.700Z,8.73
2022-11-14T03:49:16.707Z,9.88
2022-11-14T03:51:43.726Z,9.60
2022-11-14T03:54:10.709Z,9.60
2022-11-14T03:56:37.699Z,10.10
2022-11-14T03:59:04.706Z,9.73
2022-11-14T04:01:31.700Z,9.82
2022-11-14T04:03:58.740Z,9.80
2022-11-14T04:06:25.744Z,10.52
2022-11-14T04:08:52.810Z,10.07
2022-11-14T04:11:20.032Z,10.23
2022-11-14T04:13:47.012Z,9.57
2022-11-14T04:16:14.018Z,9.32
2022-11-14T04:18:41.031Z,9.63
2022-11-14T04:21:08.032Z,10.30
2022-11-14T04:23:35.100Z,8.60
2022-11-14T04:26:02.129Z,8.90
2022-11-14T04:28:29.381Z,8.95
2022-11-14T04:30:56.618Z,9.27
2022-11-14T04:33:23.636Z,9.82
2022-11-14T04:35:50.683Z,9.43
2022-11-14T04:38:17.690Z,9.95
2022-11-14T04:40:51.644Z,10.88
2022-11-14T04:43:18.896Z,10.45
2022-11-14T04:45:46.010Z,10.27
2022-11-14T04:48:13.600Z,10.05
2022-11-14T04:50:40.591Z,9.40
2022-11-14T04:53:07.622Z,11.38
2022-11-14T04:55:34.629Z,9.68
2022-11-14T04:58:02.466Z,11.07
2022-11-14T05:00:29.590Z,10.05
2022-11-14T05:02:58.816Z,9.73
2022-11-14T05:05:25.836Z,10.10
2022-11-14T05:07:52.887Z,9.52
2022-11-14T05:12:54.934Z,10.65
2022-11-14T05:15:22.506Z,10.10
2022-11-14T05:17:49.519Z,10.93
2022-11-14T05:20:16.639Z,10.30
2022-11-14T05:22:43.674Z,11.25
2022-11-14T05:25:11.276Z,10.63
2022-11-14T05:27:38.403Z,9.73
2022-11-14T05:30:05.568Z,11.25
2022-11-14T05:32:32.606Z,10.25
2022-11-14T05:34:59.572Z,10.32
2022-11-14T05:37:26.575Z,9.95
2022-11-14T05:39:53.670Z,9.65
2022-11-14T05:42:20.739Z,9.40
2022-11-14T05:44:47.828Z,10.23
2022-11-14T05:47:14.863Z,10.55
2022-11-14T05:49:41.956Z,10.93
2022-11-14T05:52:08.983Z,10.98
2022-11-14T05:54:36.004Z,9.80
2022-11-14T05:57:03.048Z,9.82
2022-11-14T05:59:30.068Z,9.82
2022-11-14T06:01:57.188Z,8.73
2022-11-14T06:04:24.253Z,9.07
2022-11-14T06:06:51.297Z,10.05
2022-11-14T06:09:18.689Z,10.00
2022-11-14T06:11:45.693Z,7.72
2022-11-14T06:14:12.759Z,8.93
2022-11-14T06:16:39.770Z,7.88
2022-11-14T06:19:06.768Z,8.82
2022-11-14T06:21:33.993Z,7.93
2022-11-14T06:24:01.156Z,8.60
2022-11-14T06:26:32.660Z,7.82
2022-11-14T06:29:00.505Z,8.32
2022-11-14T06:31:27.800Z,8.45
2022-11-14T06:33:54.879Z,9.88
2022-11-14T06:36:21.931Z,9.98
2022-11-14T06:38:48.972Z,8.70
2022-11-14T06:41:15.960Z,8.60
2022-11-14T06:43:44.413Z,9.05
2022-11-14T06:46:12.353Z,7.75
2022-11-14T06:48:39.704Z,8.18
2022-11-14T06:51:07.644Z,7.90
2022-11-14T06:53:36.265Z,8.27
2022-11-14T06:56:05.141Z,7.38
2022-11-14T06:58:34.048Z,7.78
2022-11-14T07:01:05.397Z,7.57
2022-11-14T07:03:32.801Z,7.88
2022-11-14T07:06:02.963Z,7.30
2022-11-14T07:08:30.139Z,7.22
2022-11-14T07:11:07.791Z,7.40
2022-11-14T07:13:35.386Z,7.65
2022-11-14T07:16:02.839Z,7.30
2022-11-14T07:18:33.976Z,6.63
2022-11-14T07:21:02.132Z,6.78
2022-11-14T07:23:29.599Z,7.13
2022-11-14T07:25:56.617Z,7.43
2022-11-14T07:28:23.636Z,7.03
2022-11-14T07:30:50.688Z,5.70
2022-11-14T07:33:17.723Z,6.72
2022-11-14T07:35:44.759Z,7.07
2022-11-14T07:38:11.850Z,7.40
2022-11-14T07:40:38.851Z,7.22
2022-11-14T07:43:05.971Z,7.53
2022-11-14T07:45:33.007Z,6.97
2022-11-14T07:48:01.183Z,6.93
2022-11-14T07:50:29.606Z,6.45
2022-11-14T07:52:57.561Z,6.78
2022-11-14T07:55:24.819Z,7.25
2022-11-14T07:57:55.164Z,6.53
2022-11-14T08:00:22.446Z,6.78
2022-11-14T08:02:49.493Z,7.53
2022-11-14T08:05:16.949Z,7.95
2022-11-14T08:07:44.613Z,6.80
2022-11-14T08:10:13.455Z,7.03
2022-11-14T08:12:41.268Z,6.50
2022-11-14T08:15:09.071Z,7.30
2022-11-14T08:17:36.136Z,7.53
2022-11-14T08:20:03.402Z,7.35
2022-11-14T08:22:31.090Z,7.30
2022-11-14T08:24:58.520Z,7.03
2022-11-14T08:27:25.745Z,6.93
2022-11-14T08:29:52.862Z,7.03
2022-11-14T08:32:20.247Z,6.50
2022-11-14T08:34:47.245Z,6.10
2022-11-14T08:37:14.362Z,5.55
2022-11-14T08:39:41.409Z,6.32
2022-11-14T08:42:08.447Z,6.22
2022-11-14T08:44:35.467Z,6.72
2022-11-14T08:47:03.741Z,5.97
2022-11-14T08:49:30.820Z,7.25
2022-11-14T08:51:57.832Z,5.85
2022-11-14T08:54:24.995Z,7.53
2022-11-14T08:56:52.026Z,9.57
2022-11-14T08:59:19.187Z,10.15
2022-11-14T09:01:46.297Z,9.98
2022-11-14T09:04:13.386Z,10.68
2022-11-14T09:06:40.516Z,11.13
2022-11-14T09:09:07.507Z,10.75
2022-11-14T09:11:35.268Z,10.38
2022-11-14T09:14:02.712Z,9.75
2022-11-14T09:16:29.730Z,10.20
2022-11-14T09:18:56.766Z,10.43
2022-11-14T09:21:23.830Z,11.43
2022-11-14T09:23:50.873Z,11.15
2022-11-14T09:26:18.683Z,10.48
2022-11-14T09:28:45.804Z,9.57
2022-11-14T09:31:13.673Z,9.52
2022-11-14T09:33:40.892Z,10.27
2022-11-14T09:36:09.711Z,10.82
2022-11-14T09:38:38.695Z,10.50
2022-11-14T09:41:06.035Z,11.60
2022-11-14T09:43:48.147Z,11.70
2022-11-14T09:46:20.782Z,11.98
2022-11-14T09:48:48.266Z,10.85
2022-11-14T09:51:20.811Z,11.07
2022-11-14T09:53:50.817Z,11.68
2022-11-14T09:56:20.941Z,12.82
2022-11-14T09:58:47.962Z,12.45
2022-11-14T10:01:36.140Z,11.05
2022-11-14T10:04:10.839Z,11.75
2022-11-14T10:06:47.508Z,12.23
2022-11-14T10:09:21.507Z,15.25
2022-11-14T10:11:56.522Z,12.07
2022-11-14T10:14:31.086Z,12.07
2022-11-14T10:17:16.892Z,12.18
2022-11-14T10:20:03.542Z,12.27
2022-11-14T10:23:01.130Z,10.75
2022-11-14T10:25:43.792Z,11.10
2022-11-14T10:28:11.283Z,12.63
2022-11-14T10:30:47.435Z,11.68
2022-11-14T10:33:21.171Z,10.70
2022-11-14T10:36:07.175Z,12.23
2022-11-14T10:38:37.533Z,11.55
2022-11-14T10:41:15.917Z,12.00
2022-11-14T10:43:51.557Z,11.38
2022-11-14T10:46:23.488Z,12.57
2022-11-14T10:48:54.002Z,11.68
2022-11-14T10:51:40.743Z,11.27
2022-11-14T10:54:10.596Z,10.63
2022-11-14T10:56:50.833Z,10.98
2022-11-14T10:59:18.086Z,11.90
2022-11-14T11:01:46.550Z,11.52
2022-11-14T11:04:24.356Z,11.73
2022-11-14T11:06:52.830Z,11.23
2022-11-14T11:09:45.068Z,12.40
2022-11-14T11:12:20.370Z,12.00
2022-11-14T11:14:48.351Z,12.13
2022-11-14T11:17:21.149Z,11.82
2022-11-14T11:19:49.061Z,11.20
2022-11-14T11:22:27.146Z,10.45
2022-11-14T11:24:54.310Z,9.90
2022-11-14T11:27:22.642Z,10.20
2022-11-14T11:30:04.823Z,9.57
2022-11-14T11:32:31.995Z,9.27
2022-11-14T11:34:59.818Z,10.15
2022-11-14T11:37:47.159Z,8.90
2022-11-14T11:40:16.900Z,9.13
2022-11-14T11:43:36.849Z,7.90
2022-11-14T11:45:40.420Z,7.65
2022-11-14T11:48:20.317Z,6.30
2022-11-14T11:50:48.138Z,6.68
2022-11-14T11:53:34.839Z,5.80
2022-11-14T11:56:05.259Z,6.50
2022-11-14T11:58:36.348Z,5.90
2022-11-14T12:01:03.408Z,6.03
2022-11-14T12:03:30.859Z,6.22
2022-11-14T12:06:06.917Z,6.38
2022-11-14T12:08:59.319Z,6.47
2022-11-14T12:11:27.738Z,6.40
2022-11-14T12:14:13.564Z,6.80
2022-11-14T12:16:59.075Z,6.35
2022-11-14T12:19:41.137Z,6.00
2022-11-14T12:22:17.311Z,5.97
2022-11-14T12:25:02.955Z,6.45
2022-11-14T12:27:36.004Z,6.10
2022-11-14T12:30:17.844Z,7.27
2022-11-14T12:32:48.435Z,5.40
2022-11-14T12:35:19.241Z,6.22
2022-11-14T12:37:52.714Z,4.90
2022-11-14T12:40:27.369Z,4.55
2022-11-14T12:42:54.479Z,4.60
2022-11-14T12:45:36.879Z,4.38
2022-11-14T12:48:21.315Z,4.15
2022-11-14T12:50:48.447Z,4.03
2022-11-14T12:53:36.544Z,4.65
2022-11-14T12:56:15.742Z,4.18
2022-11-14T12:58:48.116Z,4.15
2022-11-14T13:01:15.131Z,4.47
2022-11-14T13:03:51.307Z,3.53
2022-11-14T13:06:38.989Z,3.70
2022-11-14T13:09:18.922Z,4.40
2022-11-14T13:12:05.531Z,4.50
2022-11-14T13:14:51.619Z,4.50
2022-11-14T13:17:37.444Z,5.05
2022-11-14T13:20:43.375Z,4.95
2022-11-14T13:23:28.774Z,4.90
2022-11-14T13:26:11.112Z,4.28
2022-11-14T13:28:38.215Z,5.07
2022-11-14T13:31:17.506Z,4.72
2022-11-14T13:33:52.620Z,4.30
2022-11-14T13:36:34.863Z,4.40
2022-11-14T13:39:10.761Z,5.20
2022-11-14T13:41:47.893Z,5.30
2022-11-14T13:44:39.673Z,4.82
2022-11-14T13:47:20.180Z,4.47
2022-11-14T13:49:57.755Z,4.47
2022-11-14T13:52:28.293Z,4.70
2022-11-14T13:54:55.442Z,4.35
2022-11-14T13:57:22.424Z,4.93
2022-11-14T14:00:02.494Z,5.22
2022-11-14T14:02:36.037Z,4.82
2022-11-14T14:05:21.846Z,4.65
2022-11-14T14:08:07.621Z,4.78
2022-11-14T14:10:43.139Z,4.32
2022-11-14T14:13:25.461Z,4.55
2022-11-14T14:16:02.731Z,4.53
2022-11-14T14:18:32.983Z,4.25
2022-11-14T14:21:11.396Z,4.50
2022-11-14T14:23:44.457Z,4.68
2022-11-14T14:26:19.841Z,3.53
2022-11-14T14:28:56.281Z,4.40
2022-11-14T14:31:23.368Z,4.57
2022-11-14T14:33:51.338Z,4.40
2022-11-14T14:36:22.877Z,5.28
2022-11-14T14:38:50.731Z,4.85
2022-11-14T14:41:18.915Z,5.63
2022-11-14T14:43:54.229Z,5.03
2022-11-14T14:46:28.758Z,4.93
2022-11-14T14:48:56.012Z,5.05
2022-11-14T14:51:33.521Z,4.90
2022-11-14T14:54:00.593Z,4.18
2022-11-14T14:56:28.623Z,4.93
2022-11-14T14:58:56.085Z,5.05
2022-11-14T15:01:26.036Z,5.43
2022-11-14T15:03:58.394Z,6.03
2022-11-14T15:06:30.497Z,5.63
2022-11-14T15:08:58.439Z,5.18
2022-11-14T15:11:29.935Z,6.07
2022-11-14T15:14:00.020Z,4.93
2022-11-14T15:16:27.212Z,5.65
2022-11-14T15:18:55.212Z,4.82
2022-11-14T15:21:25.145Z,5.30
2022-11-14T15:23:59.214Z,5.03
2022-11-14T15:26:26.489Z,5.32
2022-11-14T15:28:53.527Z,5.15
2022-11-14T15:31:21.541Z,5.80
2022-11-14T15:34:02.275Z,5.10
2022-11-14T15:36:29.340Z,6.47
2022-11-14T15:39:04.498Z,6.25
2022-11-14T15:41:32.437Z,5.55
2022-11-14T15:44:02.183Z,6.07
2022-11-14T15:46:35.718Z,6.45
2022-11-14T15:49:08.430Z,5.78
2022-11-14T15:51:46.560Z,7.00
2022-11-14T15:54:22.450Z,6.60
2022-11-14T15:56:49.521Z,6.53
2022-11-14T15:59:16.546Z,6.72
2022-11-14T16:01:44.808Z,7.15
2022-11-14T16:04:16.901Z,7.80
2022-11-14T16:06:44.042Z,7.28
2022-11-14T16:09:15.225Z,8.05
2022-11-14T16:11:42.478Z,8.00
2022-11-14T16:14:09.507Z,7.63
2022-11-14T16:16:36.570Z,7.55
2022-11-14T16:19:03.781Z,7.35
2022-11-14T16:21:30.772Z,7.30
2022-11-14T16:23:57.958Z,7.53
2022-11-14T16:26:26.270Z,7.88
2022-11-14T16:28:53.748Z,7.97
2022-11-14T16:31:20.811Z,7.47
2022-11-14T16:33:47.821Z,7.07
2022-11-14T16:36:14.858Z,7.70
2022-11-14T16:38:41.841Z,7.90
2022-11-14T16:41:09.764Z,8.10
2022-11-14T16:43:36.803Z,8.00
2022-11-14T16:46:05.163Z,60.35
2022-11-14T16:48:32.194Z,30.85
2022-11-14T16:51:14.814Z,20.77
2022-11-14T16:53:42.135Z,999.90
2022-11-14T16:56:11.341Z,596.33
2022-11-14T16:58:39.835Z,999.90
2022-11-14T17:01:12.911Z,999.90
2022-11-14T17:03:41.507Z,650.78
2022-11-14T17:06:10.114Z,813.20
2022-11-14T17:08:37.367Z,542.97
2022-11-14T17:11:08.814Z,726.85
2022-11-14T17:13:36.645Z,636.10
2022-11-14T17:16:04.281Z,619.45
2022-11-14T17:18:35.686Z,563.25
2022-11-14T17:21:06.413Z,460.55
2022-11-14T17:23:33.437Z,319.10
2022-11-14T17:26:07.459Z,214.25
2022-11-14T17:28:34.643Z,147.55
2022-11-14T17:31:06.174Z,161.80
2022-11-14T17:33:33.432Z,172.75
2022-11-14T17:36:05.107Z,223.63
2022-11-14T17:38:32.858Z,274.60
2022-11-14T17:40:59.919Z,333.67
2022-11-14T17:43:27.210Z,386.15
2022-11-14T17:45:55.184Z,410.35
2022-11-14T17:48:22.297Z,423.55
2022-11-14T17:50:49.351Z,446.65
2022-11-14T17:53:16.394Z,465.15
2022-11-14T17:55:44.563Z,450.15
2022-11-14T17:58:12.070Z,474.85
2022-11-14T18:00:39.439Z,496.98
2022-11-14T18:03:06.419Z,506.38
2022-11-14T18:05:33.473Z,506.77
2022-11-14T18:08:00.518Z,515.22
2022-11-14T18:10:27.517Z,516.75
2022-11-14T18:12:54.543Z,530.42
2022-11-14T18:15:26.594Z,522.88
2022-11-14T18:17:54.873Z,379.05
2022-11-14T18:20:21.917Z,505.52
2022-11-14T18:22:49.005Z,514.05
2022-11-14T18:25:16.088Z,517.72
2022-11-14T18:27:43.375Z,505.08
2022-11-14T18:30:34.629Z,498.27
2022-11-14T18:32:58.834Z,473.67
2022-11-14T18:35:25.841Z,484.90
2022-11-14T18:37:52.890Z,506.17
2022-11-14T18:40:21.516Z,497.40
2022-11-14T18:42:48.602Z,482.60
2022-11-14T18:45:15.601Z,471.58
2022-11-14T18:47:42.621Z,473.40
2022-11-14T18:50:09.708Z,468.15
2022-11-14T18:52:37.196Z,486.75
2022-11-14T18:55:04.884Z,523.40
2022-11-14T18:57:31.924Z,519.58
2022-11-14T18:59:58.932Z,517.90
2022-11-14T19:02:26.028Z,515.72
2022-11-14T19:04:53.208Z,510.48
2022-11-14T19:07:20.264Z,503.20
2022-11-14T19:09:47.331Z,512.70
2022-11-14T19:12:23.919Z,504.13
2022-11-14T19:14:51.607Z,497.73
2022-11-14T19:17:20.973Z,490.25
2022-11-14T19:19:49.345Z,461.05
2022-11-14T19:22:17.133Z,464.80
2022-11-14T19:24:47.076Z,456.95
2022-11-14T19:27:14.695Z,484.30
2022-11-14T19:29:41.708Z,470.80
2022-11-14T19:32:08.736Z,441.85
2022-11-14T19:34:35.944Z,417.10
2022-11-14T19:37:03.015Z,388.40
2022-11-14T19:39:30.148Z,362.73
2022-11-14T19:41:57.367Z,340.48
2022-11-14T19:44:24.411Z,334.20
2022-11-14T19:46:51.412Z,327.65
2022-11-14T19:49:18.403Z,309.23
2022-11-14T19:51:45.402Z,293.40
2022-11-14T19:54:12.509Z,248.02
2022-11-14T19:56:39.590Z,241.48
2022-11-14T19:59:13.817Z,235.05
2022-11-14T20:01:42.184Z,199.25
2022-11-14T20:04:11.727Z,184.20
2022-11-14T20:06:38.804Z,165.50
2022-11-14T20:09:07.363Z,148.50
2022-11-14T20:11:34.611Z,146.40
2022-11-14T20:14:02.697Z,140.20
2022-11-14T20:16:31.679Z,130.82
2022-11-14T20:19:00.498Z,103.13
2022-11-14T20:21:28.029Z,91.40
2022-11-14T20:23:55.104Z,82.45
2022-11-14T20:26:22.687Z,68.32
2022-11-14T20:28:52.026Z,128.55
2022-11-14T20:31:20.971Z,172.50
2022-11-14T20:33:48.988Z,227.45
2022-11-14T20:36:21.208Z,281.58
2022-11-14T20:38:48.358Z,121.47
2022-11-14T20:41:15.555Z,158.27
2022-11-14T20:43:43.164Z,174.35
2022-11-14T20:46:14.861Z,196.23
2022-11-14T20:48:42.386Z,101.10
2022-11-14T20:51:11.556Z,119.88
2022-11-14T20:53:38.994Z,170.30
2022-11-14T20:56:06.139Z,191.52
2022-11-14T20:58:33.491Z,225.30
2022-11-14T21:01:00.862Z,250.98
2022-11-14T21:03:28.337Z,308.27
2022-11-14T21:05:56.466Z,363.80
2022-11-14T21:08:23.492Z,422.60
2022-11-14T21:10:53.101Z,455.17
2022-11-14T21:13:39.641Z,513.10
2022-11-14T21:16:11.105Z,545.63
2022-11-14T21:18:39.425Z,407.92
2022-11-14T21:21:09.005Z,406.70
2022-11-14T21:23:36.948Z,459.75
2022-11-14T21:26:04.032Z,467.38
2022-11-14T21:28:32.155Z,493.98
2022-11-14T21:31:00.695Z,528.88
2022-11-14T21:33:29.088Z,522.30
2022-11-14T21:36:07.296Z,543.20
2022-11-14T21:38:43.555Z,565.70
2022-11-14T21:41:15.524Z,568.58
2022-11-14T21:43:42.816Z,562.90
2022-11-14T21:46:10.384Z,555.47
2022-11-14T21:48:41.617Z,566.22
2022-11-14T21:51:12.973Z,577.53
2022-11-14T21:53:40.449Z,578.20
2022-11-14T21:56:15.198Z,580.80
2022-11-14T21:58:42.396Z,574.33
2022-11-14T22:01:36.877Z,584.40
2022-11-14T22:04:13.624Z,588.08
2022-11-14T22:06:43.987Z,596.47
2022-11-14T22:09:11.279Z,594.30
2022-11-14T22:11:38.690Z,585.65
2022-11-14T22:14:06.053Z,592.17
2022-11-14T22:16:33.388Z,587.83
2022-11-14T22:19:05.247Z,600.55
2022-11-14T22:21:32.781Z,599.90
2022-11-14T22:23:59.871Z,600.78
2022-11-14T22:26:26.868Z,587.05
2022-11-14T22:28:53.876Z,594.97
2022-11-14T22:31:22.623Z,591.92
2022-11-14T22:33:50.587Z,606.72
2022-11-14T22:36:18.602Z,608.78
2022-11-14T22:38:46.149Z,606.60
2022-11-14T22:41:14.676Z,610.85
2022-11-14T22:43:42.068Z,623.08
2022-11-14T22:46:10.838Z,617.92
2022-11-14T22:48:37.949Z,615.05
2022-11-14T22:51:06.907Z,625.53
2022-11-14T22:53:34.611Z,624.25
2022-11-14T22:56:02.297Z,626.05
2022-11-14T22:58:33.158Z,614.58
2022-11-14T23:01:00.316Z,611.28
2022-11-14T23:03:28.520Z,607.70
2022-11-14T23:05:55.546Z,601.22
2022-11-14T23:08:22.589Z,600.83
2022-11-14T23:10:49.672Z,589.83
2022-11-14T23:13:16.647Z,585.72
2022-11-14T23:15:47.077Z,580.65
2022-11-14T23:18:14.799Z,581.22
2022-11-14T23:20:41.828Z,581.35
2022-11-14T23:23:08.854Z,569.70
2022-11-14T23:25:37.002Z,575.95
2022-11-14T23:28:04.087Z,580.08
2022-11-14T23:30:31.093Z,574.55
2022-11-14T23:32:58.093Z,574.08
2022-11-14T23:35:25.130Z,571.45
2022-11-14T23:37:52.184Z,569.92
2022-11-14T23:40:19.263Z,573.88
2022-11-14T23:42:46.373Z,577.90
2022-11-14T23:45:13.545Z,567.90
2022-11-14T23:47:40.575Z,564.47
2022-11-14T23:50:07.660Z,563.25
2022-11-14T23:52:34.770Z,557.10
2022-11-14T23:55:02.645Z,560.28
2022-11-14T23:57:29.844Z,549.72
2022-11-14T23:59:56.863Z,553.22
